Time;durP1;ratioP1;P1;durP2;ratioP2;P2;SDS_P1;SDS_P2;PMS_P1;PMS_P2;Temp;Humidity;BMP_temperature;BMP_pressure;BME280_temperature;BME280_humidity;BME280_pressure;Samples;Min_cycle;Max_cycle;Signal;HPM_P1;HPM_P2
2022/01/31 00:00:24;;;;;;;13.63;3.90;;;;;;;;;;6222219;23;20001;-89
2022/01/31 00:02:50;;;;;;;10.95;3.15;;;;;;;;;;6195302;23;20005;-90
2022/01/31 00:05:17;;;;;;;8.88;2.95;;;;;;;;;;6221900;23;20004;-91
2022/01/31 00:07:43;;;;;;;13.15;3.50;;;;;;;;;;6221882;23;20012;-89
2022/01/31 00:10:12;;;;;;;19.08;6.97;;;;;;;;;;6222326;23;20310;-89
2022/01/31 00:12:50;;;;;;;11.65;3.70;;;;;;;;;;6221694;23;20245;-90
2022/01/31 00:15:16;;;;;;;10.52;3.17;;;;;;;;;;6221835;23;19997;-90
2022/01/31 00:17:42;;;;;;;13.70;4.05;;;;;;;;;;6221772;23;20031;-89
2022/01/31 00:20:08;;;;;;;9.15;3.53;;;;;;;;;;6196138;23;20026;-89
2022/01/31 00:22:34;;;;;;;13.38;3.60;;;;;;;;;;6195601;23;20011;-89
2022/01/31 00:28:04;;;;;;;9.50;2.65;;;;;;;;;;6221660;23;20272;-90
2022/01/31 00:30:30;;;;;;;11.13;2.85;;;;;;;;;;6221813;23;20009;-90
2022/01/31 00:32:56;;;;;;;7.90;2.85;;;;;;;;;;6194306;23;20274;-88
2022/01/31 00:35:22;;;;;;;10.50;2.50;;;;;;;;;;6195209;23;20047;-89
2022/01/31 00:37:48;;;;;;;13.20;2.85;;;;;;;;;;6221685;23;19997;-88
2022/01/31 00:40:15;;;;;;;8.40;2.60;;;;;;;;;;6221708;23;20356;-89
2022/01/31 00:42:41;;;;;;;10.80;3.30;;;;;;;;;;6221299;23;20012;-88
2022/01/31 00:48:06;;;;;;;10.40;2.67;;;;;;;;;;6074162;23;20017;-89
2022/01/31 00:50:40;;;;;;;9.68;2.65;;;;;;;;;;6072213;23;20075;-88
2022/01/31 00:53:06;;;;;;;8.07;3.10;;;;;;;;;;6072042;23;20104;-89
2022/01/31 00:55:32;;;;;;;12.73;3.53;;;;;;;;;;6072201;23;20006;-87
2022/01/31 00:57:58;;;;;;;8.63;2.78;;;;;;;;;;6072081;23;20003;-89
2022/01/31 01:00:25;;;;;;;9.85;2.35;;;;;;;;;;6047588;23;19999;-88
2022/01/31 01:02:51;;;;;;;10.25;2.47;;;;;;;;;;6072000;23;20375;-88
2022/01/31 01:05:17;;;;;;;7.75;1.95;;;;;;;;;;6071747;23;20010;-88
2022/01/31 01:07:45;;;;;;;11.80;3.00;;;;;;;;;;6071582;23;20078;-88
2022/01/31 01:10:12;;;;;;;7.90;2.42;;;;;;;;;;6071902;23;20482;-88
2022/01/31 01:12:39;;;;;;;9.55;2.22;;;;;;;;;;6047321;23;20019;-87
2022/01/31 01:15:05;;;;;;;9.88;2.20;;;;;;;;;;6072054;23;19999;-88
2022/01/31 01:17:31;;;;;;;16.33;3.90;;;;;;;;;;6047514;23;20045;-88
2022/01/31 01:19:57;;;;;;;15.45;3.17;;;;;;;;;;6072031;23;20018;-89
2022/01/31 01:22:23;;;;;;;10.85;2.50;;;;;;;;;;6047670;23;20047;-90
2022/01/31 01:24:49;;;;;;;8.20;2.05;;;;;;;;;;6172710;23;20084;-88
2022/01/31 01:27:19;;;;;;;8.98;2.42;;;;;;;;;;6195205;23;20371;-90
2022/01/31 01:29:46;;;;;;;11.88;3.15;;;;;;;;;;6194896;23;20055;-90
2022/01/31 01:32:12;;;;;;;12.70;2.90;;;;;;;;;;6193871;23;20323;-89
2022/01/31 01:34:38;;;;;;;16.50;2.88;;;;;;;;;;6194963;23;20050;-90
2022/01/31 01:37:04;;;;;;;6.80;2.10;;;;;;;;;;6220840;23;20004;-90
2022/01/31 01:39:31;;;;;;;13.18;2.65;;;;;;;;;;6194886;23;20004;-89
2022/01/31 01:45:01;;;;;;;15.25;2.95;;;;;;;;;;6221110;23;20016;-90
2022/01/31 01:47:27;;;;;;;10.43;2.30;;;;;;;;;;6221301;23;20005;-90
2022/01/31 01:49:53;;;;;;;9.45;2.28;;;;;;;;;;6221491;23;20004;-90
2022/01/31 01:52:20;;;;;;;11.80;2.47;;;;;;;;;;6221291;23;20005;-90
2022/01/31 01:54:47;;;;;;;9.82;2.25;;;;;;;;;;6221215;23;20046;-90
2022/01/31 01:57:33;;;;;;;10.18;2.03;;;;;;;;;;6221390;23;20237;-90
2022/01/31 01:59:59;;;;;;;10.20;2.22;;;;;;;;;;6220743;23;19997;-91
2022/01/31 02:02:25;;;;;;;11.52;2.17;;;;;;;;;;6195118;23;20016;-90
2022/01/31 02:04:51;;;;;;;10.07;2.33;;;;;;;;;;6194469;23;20032;-91
2022/01/31 02:07:18;;;;;;;9.05;2.30;;;;;;;;;;6220738;23;20004;-92
2022/01/31 02:09:52;;;;;;;11.88;2.50;;;;;;;;;;6221131;23;20004;-90
2022/01/31 02:12:54;;;;;;;11.73;2.50;;;;;;;;;;6219869;23;20028;-91
2022/01/31 02:15:24;;;;;;;13.32;2.22;;;;;;;;;;6076461;23;20025;-89
2022/01/31 02:17:50;;;;;;;13.82;2.70;;;;;;;;;;6100268;23;20022;-89
2022/01/31 02:20:16;;;;;;;10.38;2.30;;;;;;;;;;6076371;23;20010;-91
2022/01/31 02:22:42;;;;;;;13.00;2.20;;;;;;;;;;6100087;23;20022;-90
2022/01/31 02:25:10;;;;;;;13.43;2.30;;;;;;;;;;6100363;23;20358;-90
2022/01/31 02:27:37;;;;;;;9.10;2.50;;;;;;;;;;6076330;23;20010;-91
2022/01/31 02:30:06;;;;;;;15.43;2.78;;;;;;;;;;6100481;23;20077;-90
2022/01/31 02:32:32;;;;;;;13.27;2.72;;;;;;;;;;6076112;23;20010;-91
2022/01/31 02:34:58;;;;;;;10.55;2.45;;;;;;;;;;6100084;23;20381;-90
2022/01/31 02:37:25;;;;;;;17.90;3.08;;;;;;;;;;6076364;23;20274;-90
2022/01/31 02:39:51;;;;;;;14.38;2.63;;;;;;;;;;6100612;23;20366;-90
2022/01/31 02:42:35;;;;;;;12.02;2.40;;;;;;;;;;6099889;23;20090;-90
2022/01/31 02:45:02;;;;;;;10.93;2.53;;;;;;;;;;6100381;23;20009;-89
2022/01/31 02:47:29;;;;;;;16.50;2.90;;;;;;;;;;6100256;23;20007;-90
2022/01/31 02:50:01;;;;;;;12.20;2.40;;;;;;;;;;6170579;23;20005;-90
2022/01/31 02:52:31;;;;;;;16.08;3.45;;;;;;;;;;6164780;23;20079;-90
2022/01/31 02:54:57;;;;;;;12.70;2.55;;;;;;;;;;6164683;23;20304;-90
2022/01/31 02:57:23;;;;;;;12.18;2.58;;;;;;;;;;6165647;23;20009;-90
2022/01/31 02:59:49;;;;;;;12.93;2.28;;;;;;;;;;6165960;23;20008;-91
2022/01/31 03:02:15;;;;;;;14.95;3.42;;;;;;;;;;6192362;23;20290;-90
2022/01/31 03:04:41;;;;;;;15.05;3.35;;;;;;;;;;6192580;23;20074;-90
2022/01/31 03:07:08;;;;;;;14.23;2.70;;;;;;;;;;6192680;23;20001;-90
2022/01/31 03:09:34;;;;;;;13.63;2.30;;;;;;;;;;6192071;23;20008;-90
2022/01/31 03:12:18;;;;;;;10.45;2.50;;;;;;;;;;6191798;23;20005;-90
2022/01/31 03:14:44;;;;;;;14.55;2.80;;;;;;;;;;6218992;23;20088;-90
2022/01/31 03:17:11;;;;;;;13.23;2.85;;;;;;;;;;6222266;23;20352;-90
2022/01/31 03:19:38;;;;;;;17.40;2.70;;;;;;;;;;6196200;23;20044;-90
2022/01/31 03:22:05;;;;;;;12.70;3.00;;;;;;;;;;6196115;23;20012;-90
2022/01/31 03:24:32;;;;;;;19.50;2.90;;;;;;;;;;6222874;23;20020;-90
2022/01/31 03:26:58;;;;;;;18.95;2.72;;;;;;;;;;6222091;23;20004;-90
2022/01/31 03:29:24;;;;;;;12.13;2.75;;;;;;;;;;6195984;23;20276;-90
2022/01/31 03:31:50;;;;;;;17.90;3.13;;;;;;;;;;6222382;23;20045;-90
2022/01/31 03:34:16;;;;;;;20.90;4.65;;;;;;;;;;6196184;23;20040;-90
2022/01/31 03:36:43;;;;;;;38.30;8.80;;;;;;;;;;6222538;23;20021;-90
2022/01/31 03:39:09;;;;;;;46.30;12.50;;;;;;;;;;6222507;23;20051;-90
2022/01/31 03:41:35;;;;;;;20.67;4.88;;;;;;;;;;6195562;23;20091;-89
2022/01/31 03:44:01;;;;;;;10.45;2.47;;;;;;;;;;6195119;23;20332;-89
2022/01/31 03:46:28;;;;;;;20.05;4.72;;;;;;;;;;6222349;23;20054;-89
2022/01/31 03:48:54;;;;;;;30.75;5.20;;;;;;;;;;6222128;23;20015;-89
2022/01/31 03:51:20;;;;;;;18.77;5.03;;;;;;;;;;6195170;23;20087;-89
2022/01/31 03:53:46;;;;;;;24.25;5.03;;;;;;;;;;6196051;23;20283;-89
2022/01/31 03:56:12;;;;;;;44.28;10.07;;;;;;;;;;6195576;23;20001;-90
2022/01/31 03:58:38;;;;;;;27.05;7.40;;;;;;;;;;6221741;23;20090;-90
2022/01/31 04:01:04;;;;;;;24.77;4.90;;;;;;;;;;6221763;23;20000;-89
2022/01/31 04:03:30;;;;;;;28.95;8.07;;;;;;;;;;6222073;23;20001;-89
2022/01/31 04:05:56;;;;;;;25.52;7.70;;;;;;;;;;6222037;23;20009;-89
2022/01/31 04:08:23;;;;;;;22.55;5.13;;;;;;;;;;6194788;23;20000;-90
2022/01/31 04:13:52;;;;;;;22.13;4.22;;;;;;;;;;6221554;23;20071;-89
2022/01/31 04:16:18;;;;;;;16.50;3.97;;;;;;;;;;6222166;23;20024;-89
2022/01/31 04:18:44;;;;;;;21.58;4.53;;;;;;;;;;6222083;23;20000;-89
2022/01/31 04:21:10;;;;;;;22.33;4.55;;;;;;;;;;6222064;23;20005;-90
2022/01/31 04:23:36;;;;;;;20.92;4.43;;;;;;;;;;6221816;23;20012;-88
2022/01/31 04:26:45;;;;;;;21.02;5.72;;;;;;;;;;6222044;23;20057;-89
2022/01/31 04:29:17;;;;;;;19.55;4.88;;;;;;;;;;6221328;23;20004;-89
2022/01/31 04:31:49;;;;;;;18.58;5.32;;;;;;;;;;6221842;23;20027;-89
2022/01/31 04:34:15;;;;;;;27.23;8.23;;;;;;;;;;6221711;23;20001;-88
2022/01/31 04:36:41;;;;;;;23.73;5.97;;;;;;;;;;6221776;23;20226;-88
2022/01/31 04:39:07;;;;;;;20.63;6.63;;;;;;;;;;6195994;23;20268;-88
2022/01/31 04:41:33;;;;;;;18.50;4.65;;;;;;;;;;6194622;23;20017;-87
2022/01/31 04:44:05;;;;;;;23.15;5.25;;;;;;;;;;6221706;23;20007;-89
2022/01/31 04:46:31;;;;;;;16.30;4.25;;;;;;;;;;6221252;23;20008;-89
2022/01/31 04:48:57;;;;;;;18.75;3.85;;;;;;;;;;6221092;23;20368;-90
2022/01/31 04:51:23;;;;;;;17.65;4.10;;;;;;;;;;6194712;23;20088;-89
2022/01/31 04:53:49;;;;;;;13.25;3.40;;;;;;;;;;6195225;23;20005;-90
2022/01/31 04:56:15;;;;;;;17.83;3.35;;;;;;;;;;6221456;23;20088;-89
2022/01/31 04:58:41;;;;;;;26.45;6.70;;;;;;;;;;6220925;23;20005;-89
2022/01/31 05:01:08;;;;;;;22.42;6.55;;;;;;;;;;6221169;23;20435;-89
2022/01/31 05:03:34;;;;;;;17.85;4.88;;;;;;;;;;6195256;23;20267;-90
2022/01/31 05:06:01;;;;;;;17.52;4.68;;;;;;;;;;6221493;23;20047;-90
2022/01/31 05:08:29;;;;;;;39.58;15.88;;;;;;;;;;6221186;23;19996;-90
2022/01/31 05:10:55;;;;;;;31.92;12.45;;;;;;;;;;6194911;23;20020;-90
2022/01/31 05:13:21;;;;;;;27.98;10.27;;;;;;;;;;6221061;23;20005;-90
2022/01/31 05:15:47;;;;;;;18.45;5.18;;;;;;;;;;6195154;23;20087;-89
2022/01/31 05:18:15;;;;;;;18.73;4.78;;;;;;;;;;6194931;23;20047;-90
2022/01/31 05:20:42;;;;;;;16.15;5.13;;;;;;;;;;6195359;23;20308;-90
2022/01/31 05:23:08;;;;;;;22.02;7.50;;;;;;;;;;6220899;23;20001;-88
2022/01/31 05:25:35;;;;;;;21.35;9.27;;;;;;;;;;6195028;23;20017;-89
2022/01/31 05:28:38;;;;;;;23.65;10.40;;;;;;;;;;6195075;23;20011;-89
2022/01/31 05:31:06;;;;;;;22.08;7.60;;;;;;;;;;6221133;23;20000;-89
2022/01/31 05:33:32;;;;;;;18.23;5.70;;;;;;;;;;6221433;23;20075;-88
2022/01/31 05:35:58;;;;;;;15.48;4.57;;;;;;;;;;6220653;23;20007;-90
2022/01/31 05:38:24;;;;;;;16.38;5.95;;;;;;;;;;6221119;23;20379;-90
2022/01/31 05:40:50;;;;;;;17.55;6.05;;;;;;;;;;6194290;23;20013;-89
2022/01/31 05:43:19;;;;;;;19.50;7.32;;;;;;;;;;6220506;23;20004;-89
2022/01/31 05:45:45;;;;;;;18.27;7.35;;;;;;;;;;6220691;23;20004;-91
2022/01/31 05:48:11;;;;;;;20.15;6.05;;;;;;;;;;6221078;23;20005;-89
2022/01/31 05:50:37;;;;;;;16.67;6.28;;;;;;;;;;6194594;23;20421;-89
2022/01/31 05:53:03;;;;;;;21.77;7.25;;;;;;;;;;6220692;23;20036;-90
2022/01/31 05:55:29;;;;;;;21.05;6.43;;;;;;;;;;6194363;23;20088;-90
2022/01/31 05:57:55;;;;;;;17.60;7.28;;;;;;;;;;6221215;23;20024;-89
2022/01/31 06:00:22;;;;;;;22.77;8.23;;;;;;;;;;6220697;23;20007;-89
2022/01/31 06:02:53;;;;;;;23.70;8.50;;;;;;;;;;6194776;23;20334;-89
2022/01/31 06:05:19;;;;;;;23.25;7.75;;;;;;;;;;6220669;23;20001;-89
2022/01/31 06:07:45;;;;;;;21.63;7.03;;;;;;;;;;6221355;23;20005;-89
2022/01/31 06:10:12;;;;;;;20.75;8.43;;;;;;;;;;6220987;23;20087;-90
2022/01/31 06:12:56;;;;;;;33.85;13.05;;;;;;;;;;6220240;23;20015;-90
2022/01/31 06:15:23;;;;;;;36.85;16.52;;;;;;;;;;6190962;23;20001;-89
2022/01/31 06:17:49;;;;;;;34.85;17.25;;;;;;;;;;6190209;23;20024;-88
2022/01/31 06:20:15;;;;;;;34.83;17.27;;;;;;;;;;6164375;23;20009;-88
2022/01/31 06:22:46;;;;;;;31.63;16.35;;;;;;;;;;6190646;23;20009;-89
2022/01/31 06:25:12;;;;;;;37.65;18.33;;;;;;;;;;6164492;23;20005;-89
2022/01/31 06:27:57;;;;;;;42.78;20.95;;;;;;;;;;6190615;23;20005;-88
2022/01/31 06:30:23;;;;;;;44.53;19.35;;;;;;;;;;6190430;23;20001;-88
2022/01/31 06:32:49;;;;;;;39.58;15.82;;;;;;;;;;6165999;23;20020;-88
2022/01/31 06:35:15;;;;;;;29.83;13.85;;;;;;;;;;6193052;23;20001;-88
2022/01/31 06:37:41;;;;;;;23.75;11.98;;;;;;;;;;6192696;23;20395;-89
2022/01/31 06:40:07;;;;;;;24.90;10.88;;;;;;;;;;6192653;23;20005;-88
2022/01/31 06:42:33;;;;;;;24.77;10.32;;;;;;;;;;6165749;23;20013;-88
2022/01/31 06:44:59;;;;;;;17.45;8.15;;;;;;;;;;6166542;23;20008;-90
2022/01/31 06:47:25;;;;;;;20.00;9.60;;;;;;;;;;6191362;23;20265;-89
2022/01/31 06:49:51;;;;;;;21.50;9.55;;;;;;;;;;6193590;23;20048;-89
2022/01/31 06:52:18;;;;;;;40.53;15.13;;;;;;;;;;6192975;23;20368;-89
2022/01/31 06:54:44;;;;;;;34.45;14.05;;;;;;;;;;6166109;23;20008;-89
2022/01/31 06:57:10;;;;;;;28.05;13.05;;;;;;;;;;6192611;23;20073;-90
2022/01/31 06:59:36;;;;;;;28.67;12.57;;;;;;;;;;6193083;23;20319;-88
2022/01/31 07:02:02;;;;;;;32.67;16.88;;;;;;;;;;6166406;23;20088;-90
2022/01/31 07:04:29;;;;;;;53.80;26.77;;;;;;;;;;6192278;23;20009;-91
2022/01/31 07:06:55;;;;;;;73.50;37.90;;;;;;;;;;6192659;23;20013;-88
2022/01/31 07:09:22;;;;;;;101.97;50.88;;;;;;;;;;6192671;23;20028;-88
2022/01/31 07:11:50;;;;;;;81.57;45.83;;;;;;;;;;6166428;23;20009;-89
2022/01/31 07:14:31;;;;;;;55.50;27.58;;;;;;;;;;6209005;23;20019;-89
2022/01/31 07:17:07;;;;;;;31.90;15.32;;;;;;;;;;6195962;23;20031;-89
2022/01/31 07:19:36;;;;;;;26.80;10.43;;;;;;;;;;6222814;23;20007;-89
2022/01/31 07:22:05;;;;;;;27.63;11.77;;;;;;;;;;6222838;23;20004;-89
2022/01/31 07:27:04;;;;;;;23.73;11.35;;;;;;;;;;6222213;23;20387;-89
2022/01/31 07:29:30;;;;;;;29.10;13.07;;;;;;;;;;6222294;23;20028;-88
2022/01/31 07:31:57;;;;;;;42.33;18.02;;;;;;;;;;6222746;23;20007;-88
2022/01/31 07:34:23;;;;;;;62.97;34.55;;;;;;;;;;6195677;23;20088;-89
2022/01/31 07:36:49;;;;;;;81.35;44.80;;;;;;;;;;6222495;23;20127;-89
2022/01/31 07:39:16;;;;;;;79.32;41.15;;;;;;;;;;6222055;23;20074;-89
2022/01/31 07:41:44;;;;;;;79.55;32.75;;;;;;;;;;6222613;23;20035;-88
2022/01/31 07:44:10;;;;;;;50.58;22.92;;;;;;;;;;6195886;23;20027;-89
2022/01/31 07:46:37;;;;;;;47.75;17.45;;;;;;;;;;6222206;23;20007;-89
2022/01/31 07:49:03;;;;;;;35.78;17.20;;;;;;;;;;6222031;23;20009;-89
2022/01/31 07:51:30;;;;;;;34.60;14.15;;;;;;;;;;6222536;23;20012;-89
2022/01/31 07:53:56;;;;;;;40.10;17.20;;;;;;;;;;6222387;23;20019;-88
2022/01/31 07:59:25;;;;;;;128.25;43.22;;;;;;;;;;6221988;23;20004;-88
2022/01/31 08:01:51;;;;;;;120.32;43.50;;;;;;;;;;6222319;23;20063;-88
2022/01/31 08:04:17;;;;;;;106.32;40.22;;;;;;;;;;6195165;23;20035;-89
2022/01/31 08:06:43;;;;;;;59.13;23.75;;;;;;;;;;6195805;23;20004;-89
2022/01/31 08:09:09;;;;;;;39.03;17.77;;;;;;;;;;6195717;23;20057;-88
2022/01/31 08:11:36;;;;;;;44.13;20.23;;;;;;;;;;6195426;23;20092;-88
2022/01/31 08:14:07;;;;;;;46.88;22.77;;;;;;;;;;6195575;23;20016;-88
2022/01/31 08:16:33;;;;;;;60.03;26.42;;;;;;;;;;6195462;23;19996;-88
2022/01/31 08:19:00;;;;;;;57.22;24.90;;;;;;;;;;6195256;23;20005;-89
2022/01/31 08:21:26;;;;;;;68.10;29.50;;;;;;;;;;6195658;23;20005;-89
2022/01/31 08:23:53;;;;;;;71.75;30.38;;;;;;;;;;6195611;23;20008;-88
2022/01/31 08:26:20;;;;;;;58.40;26.67;;;;;;;;;;6221596;23;20004;-87
2022/01/31 08:28:58;;;;;;;68.88;27.10;;;;;;;;;;6194742;23;20520;-89
2022/01/31 08:31:33;;;;;;;80.03;29.75;;;;;;;;;;6221596;23;20123;-90
2022/01/31 08:36:26;;;;;;;42.35;17.35;;;;;;;;;;6232070;23;20005;-89
2022/01/31 08:38:53;;;;;;;105.35;36.08;;;;;;;;;;6220918;23;20000;-89
2022/01/31 08:41:19;;;;;;;149.05;50.78;;;;;;;;;;6195197;23;20012;-89
2022/01/31 08:43:45;;;;;;;42.97;17.20;;;;;;;;;;6221471;23;20352;-89
2022/01/31 08:46:12;;;;;;;45.90;16.77;;;;;;;;;;6221463;23;20364;-88
2022/01/31 08:48:38;;;;;;;32.88;12.75;;;;;;;;;;6195470;23;20004;-88
2022/01/31 08:51:06;;;;;;;38.92;17.00;;;;;;;;;;6221177;23;19996;-88
2022/01/31 08:53:32;;;;;;;32.80;13.18;;;;;;;;;;6221827;23;20004;-88
2022/01/31 08:56:00;;;;;;;39.15;15.60;;;;;;;;;;6221476;23;20051;-89
2022/01/31 08:58:27;;;;;;;52.15;20.30;;;;;;;;;;6221561;23;19997;-88
2022/01/31 09:01:00;;;;;;;52.58;21.40;;;;;;;;;;6194969;23;20005;-86
2022/01/31 09:05:59;;;;;;;44.95;18.65;;;;;;;;;;6231047;23;20249;-87
2022/01/31 09:08:26;;;;;;;65.32;27.17;;;;;;;;;;6221605;23;20323;-87
2022/01/31 09:10:52;;;;;;;89.93;33.42;;;;;;;;;;6221115;23;20013;-87
2022/01/31 09:13:18;;;;;;;128.13;46.35;;;;;;;;;;6194209;23;20008;-86
2022/01/31 09:15:44;;;;;;;97.80;32.72;;;;;;;;;;6221170;23;20030;-87
2022/01/31 09:18:10;;;;;;;92.30;32.92;;;;;;;;;;6221021;23;20004;-86
2022/01/31 09:20:37;;;;;;;95.45;28.45;;;;;;;;;;6194812;23;20099;-86
2022/01/31 09:23:03;;;;;;;101.65;32.95;;;;;;;;;;6220818;23;20000;-86
2022/01/31 09:25:30;;;;;;;89.78;28.95;;;;;;;;;;6221424;23;20004;-86
2022/01/31 09:27:57;;;;;;;104.95;32.78;;;;;;;;;;6194813;23;20008;-86
2022/01/31 09:30:23;;;;;;;126.68;35.70;;;;;;;;;;6221296;23;20031;-87
2022/01/31 09:32:49;;;;;;;114.40;39.95;;;;;;;;;;6220989;23;20016;-87
2022/01/31 09:35:15;;;;;;;106.45;37.05;;;;;;;;;;6221449;23;20001;-88
2022/01/31 09:37:41;;;;;;;126.63;38.22;;;;;;;;;;6221436;23;20359;-85
2022/01/31 09:40:08;;;;;;;108.70;37.60;;;;;;;;;;6194693;23;20004;-86
2022/01/31 09:42:41;;;;;;;154.18;49.17;;;;;;;;;;6221436;23;20016;-86
2022/01/31 09:50:18;;;;;;;93.32;33.40;;;;;;;;;;6221059;23;20032;-86
2022/01/31 09:52:44;;;;;;;90.18;36.47;;;;;;;;;;6221060;23;20000;-85
2022/01/31 09:55:11;;;;;;;89.13;34.17;;;;;;;;;;6221216;23;20000;-85
2022/01/31 09:57:37;;;;;;;69.57;28.85;;;;;;;;;;6220781;23;20043;-85
2022/01/31 10:00:04;;;;;;;90.53;34.95;;;;;;;;;;6194502;23;20001;-85
2022/01/31 10:02:30;;;;;;;82.70;32.65;;;;;;;;;;6220697;23;20356;-84
2022/01/31 10:04:56;;;;;;;84.28;30.27;;;;;;;;;;6220857;23;20005;-84
2022/01/31 10:07:22;;;;;;;81.32;33.17;;;;;;;;;;6222000;23;20023;-84
2022/01/31 10:09:49;;;;;;;68.30;30.92;;;;;;;;;;6223052;23;20004;-84
2022/01/31 10:17:32;;;;;;;95.15;29.65;;;;;;;;;;6222982;23;20092;-85
2022/01/31 10:20:00;;;;;;;69.90;22.70;;;;;;;;;;6222776;23;20359;-84
2022/01/31 10:22:28;;;;;;;97.10;21.85;;;;;;;;;;6195945;23;20011;-85
2022/01/31 10:24:55;;;;;;;49.33;13.93;;;;;;;;;;6222623;23;20409;-85
2022/01/31 10:27:29;;;;;;;61.03;16.60;;;;;;;;;;6196198;23;20016;-84
2022/01/31 10:30:15;;;;;;;45.65;11.07;;;;;;;;;;6222935;23;20001;-84
2022/01/31 10:32:46;;;;;;;41.85;12.40;;;;;;;;;;6195802;23;20013;-84
2022/01/31 10:35:18;;;;;;;44.88;12.07;;;;;;;;;;6196328;23;20012;-84
2022/01/31 10:37:44;;;;;;;43.65;12.50;;;;;;;;;;6222600;23;20042;-85
2022/01/31 10:56:49;;;;;;;37.30;12.77;;;;;;;;;;6073941;23;20022;-84
2022/01/31 10:59:20;;;;;;;27.25;13.30;;;;;;;;;;6048753;23;20003;-84
2022/01/31 11:01:47;;;;;;;76.03;38.55;;;;;;;;;;6072840;23;20007;-84
2022/01/31 11:04:15;;;;;;;38.72;17.98;;;;;;;;;;6072821;23;20007;-84
2022/01/31 11:06:46;;;;;;;26.42;9.90;;;;;;;;;;6072739;23;20082;-85
2022/01/31 11:09:16;;;;;;;34.20;10.10;;;;;;;;;;6048824;23;20011;-84
2022/01/31 11:11:43;;;;;;;29.95;11.07;;;;;;;;;;6048380;23;20022;-84
2022/01/31 11:14:10;;;;;;;30.88;7.85;;;;;;;;;;6072240;23;20367;-84
2022/01/31 11:16:37;;;;;;;29.02;10.15;;;;;;;;;;6072163;23;20378;-85
2022/01/31 11:19:07;;;;;;;31.90;11.25;;;;;;;;;;6071650;23;20073;-84
2022/01/31 11:21:34;;;;;;;22.63;7.20;;;;;;;;;;6072380;23;20286;-84
2022/01/31 11:24:02;;;;;;;24.95;7.95;;;;;;;;;;6072375;23;20006;-84
2022/01/31 11:26:34;;;;;;;30.67;11.30;;;;;;;;;;6072388;23;20053;-84
2022/01/31 11:29:00;;;;;;;;;;;;;;;;;;6048775;23;20027;-84
2022/01/31 11:31:26;;;;;;;38.28;11.98;;;;;;;;;;6048086;23;19984;-83
2022/01/31 11:33:53;;;;;;;36.03;11.00;;;;;;;;;;6151077;23;20001;-85
2022/01/31 11:36:20;;;;;;;40.60;12.20;;;;;;;;;;6221716;23;20067;-84
2022/01/31 11:38:46;;;;;;;35.40;12.13;;;;;;;;;;6221949;23;20032;-84
2022/01/31 11:41:12;;;;;;;26.27;9.80;;;;;;;;;;6221651;23;20056;-84
2022/01/31 11:43:39;;;;;;;24.92;8.27;;;;;;;;;;6222286;23;20009;-84
2022/01/31 11:46:07;;;;;;;33.78;11.68;;;;;;;;;;6194767;23;20004;-84
2022/01/31 11:48:33;;;;;;;51.88;15.35;;;;;;;;;;6221477;23;20001;-84
2022/01/31 11:51:02;;;;;;;45.45;13.15;;;;;;;;;;6221894;23;19996;-84
2022/01/31 11:53:32;;;;;;;56.42;19.00;;;;;;;;;;6221487;23;20004;-84
2022/01/31 11:56:07;;;;;;;45.03;14.10;;;;;;;;;;6221451;23;20001;-83
2022/01/31 11:58:43;;;;;;;40.75;11.93;;;;;;;;;;6221770;23;20085;-84
2022/01/31 12:01:09;;;;;;;39.22;11.50;;;;;;;;;;6221907;23;20000;-84
2022/01/31 12:03:36;;;;;;;53.33;16.02;;;;;;;;;;6222197;23;20027;-84
2022/01/31 12:06:09;;;;;;;51.67;17.13;;;;;;;;;;6222077;23;20003;-84
2022/01/31 12:08:41;;;;;;;44.40;16.92;;;;;;;;;;6221591;23;20004;-84
2022/01/31 12:11:12;;;;;;;38.92;16.75;;;;;;;;;;6194856;23;20019;-85
2022/01/31 12:13:48;;;;;;;39.42;15.80;;;;;;;;;;6221137;23;20001;-84
2022/01/31 12:22:02;;;;;;;33.22;9.73;;;;;;;;;;6222147;23;20008;-85
2022/01/31 12:24:31;;;;;;;27.35;11.20;;;;;;;;;;6195189;23;20032;-84
2022/01/31 12:27:17;;;;;;;22.55;7.43;;;;;;;;;;6221351;23;20372;-84
2022/01/31 12:29:51;;;;;;;62.03;13.27;;;;;;;;;;6220897;23;20384;-84
2022/01/31 12:32:21;;;;;;;20.05;5.63;;;;;;;;;;6221791;23;20259;-85
2022/01/31 12:34:52;;;;;;;20.25;5.78;;;;;;;;;;6221780;23;20009;-85
2022/01/31 12:37:36;;;;;;;25.13;6.68;;;;;;;;;;6221141;23;19997;-84
2022/01/31 12:40:27;;;;;;;27.75;7.85;;;;;;;;;;6221035;23;20024;-88
2022/01/31 12:43:08;;;;;;;32.40;9.23;;;;;;;;;;6221648;23;20008;-86
2022/01/31 12:45:40;;;;;;;28.55;9.38;;;;;;;;;;6221744;23;20075;-86
2022/01/31 12:48:09;;;;;;;25.25;9.95;;;;;;;;;;6221554;23;20311;-86
2022/01/31 12:50:36;;;;;;;30.35;8.90;;;;;;;;;;6221381;23;20395;-87
2022/01/31 12:53:06;;;;;;;26.55;6.75;;;;;;;;;;6221318;23;20007;-87
2022/01/31 12:55:35;;;;;;;27.75;5.80;;;;;;;;;;6195024;23;20004;-86
2022/01/31 12:58:02;;;;;;;18.50;4.82;;;;;;;;;;6221765;23;20024;-86
2022/01/31 13:00:40;;;;;;;20.35;6.03;;;;;;;;;;6195183;23;19997;-86
2022/01/31 13:03:07;;;;;;;19.40;6.25;;;;;;;;;;6195284;23;20008;-86
2022/01/31 13:05:34;;;;;;;13.18;4.97;;;;;;;;;;6195095;23;20268;-86
2022/01/31 13:08:00;;;;;;;36.92;13.70;;;;;;;;;;6195108;23;20382;-86
2022/01/31 13:10:36;;;;;;;25.50;10.57;;;;;;;;;;6221174;23;20008;-85
2022/01/31 13:13:03;;;;;;;33.80;10.55;;;;;;;;;;6221149;23;20008;-86
2022/01/31 13:15:29;;;;;;;26.60;9.93;;;;;;;;;;6194311;23;20393;-86
2022/01/31 13:18:06;;;;;;;14.95;5.43;;;;;;;;;;6220821;23;20023;-86
2022/01/31 13:20:33;;;;;;;25.38;7.93;;;;;;;;;;6221238;23;19997;-87
2022/01/31 13:23:00;;;;;;;26.48;7.95;;;;;;;;;;6221265;23;20076;-86
2022/01/31 13:25:26;;;;;;;36.22;10.43;;;;;;;;;;6194925;23;20088;-86
2022/01/31 13:27:52;;;;;;;24.70;8.88;;;;;;;;;;6221014;23;20390;-86
2022/01/31 13:30:19;;;;;;;18.45;6.55;;;;;;;;;;6221227;23;20012;-85
2022/01/31 13:32:46;;;;;;;22.70;7.10;;;;;;;;;;6194661;23;20375;-86
2022/01/31 13:35:15;;;;;;;21.90;8.43;;;;;;;;;;6221155;23;20003;-86
2022/01/31 13:37:44;;;;;;;34.28;10.38;;;;;;;;;;6221391;23;19996;-86
2022/01/31 13:40:16;;;;;;;27.20;10.05;;;;;;;;;;6219385;23;20004;-86
2022/01/31 13:42:43;;;;;;;25.85;10.15;;;;;;;;;;6221761;23;20012;-86
2022/01/31 13:45:14;;;;;;;30.40;8.80;;;;;;;;;;6194414;23;20036;-86
2022/01/31 13:50:15;;;;;;;28.65;10.48;;;;;;;;;;6231165;23;20091;-86
2022/01/31 13:53:00;;;;;;;37.63;12.95;;;;;;;;;;6220410;23;20012;-86
2022/01/31 13:55:27;;;;;;;33.50;13.13;;;;;;;;;;6194466;23;19997;-85
2022/01/31 13:57:53;;;;;;;37.47;13.10;;;;;;;;;;6221283;23;19997;-85
2022/01/31 14:00:20;;;;;;;38.33;14.15;;;;;;;;;;6193942;23;20291;-85
2022/01/31 14:03:06;;;;;;;36.22;12.10;;;;;;;;;;6194572;23;20004;-85
2022/01/31 14:05:35;;;;;;;34.78;12.55;;;;;;;;;;6221000;23;20000;-86
2022/01/31 14:08:08;;;;;;;28.20;10.68;;;;;;;;;;6221260;23;20007;-85
2022/01/31 14:10:35;;;;;;;28.90;9.93;;;;;;;;;;6221173;23;20008;-86
2022/01/31 14:13:05;;;;;;;26.85;10.35;;;;;;;;;;6221524;23;20010;-85
2022/01/31 14:15:48;;;;;;;26.33;9.80;;;;;;;;;;6220937;23;20000;-85
2022/01/31 14:18:20;;;;;;;20.52;8.15;;;;;;;;;;6194431;23;20007;-85
2022/01/31 14:20:50;;;;;;;21.98;8.73;;;;;;;;;;6220853;23;20001;-85
2022/01/31 14:23:16;;;;;;;26.15;9.07;;;;;;;;;;6193555;23;20013;-86
2022/01/31 14:25:49;;;;;;;28.63;10.68;;;;;;;;;;6220569;23;20012;-85
2022/01/31 14:28:17;;;;;;;27.20;10.23;;;;;;;;;;6221106;23;20062;-85
2022/01/31 14:30:46;;;;;;;35.85;11.00;;;;;;;;;;6194429;23;20015;-85
2022/01/31 14:33:12;;;;;;;30.02;11.23;;;;;;;;;;6194365;23;20012;-86
2022/01/31 14:35:38;;;;;;;28.08;10.82;;;;;;;;;;6221064;23;20057;-86
2022/01/31 14:38:15;;;;;;;29.92;9.88;;;;;;;;;;6220678;23;20047;-86
2022/01/31 14:47:15;;;;;;;19.35;7.80;;;;;;;;;;6224013;23;20088;-86
2022/01/31 14:48:57;;;;;;;29.38;9.80;;;;;;;;;;6220623;23;20016;-86
2022/01/31 14:51:23;;;;;;;28.73;10.48;;;;;;;;;;6220180;23;20008;-85
2022/01/31 14:53:56;;;;;;;36.88;13.43;;;;;;;;;;6222003;23;19997;-85
2022/01/31 14:56:23;;;;;;;36.97;13.98;;;;;;;;;;6222767;23;20000;-86
2022/01/31 14:58:49;;;;;;;32.92;14.60;;;;;;;;;;6222828;23;19997;-86
2022/01/31 15:01:15;;;;;;;27.40;11.57;;;;;;;;;;6222759;23;20004;-86
2022/01/31 15:03:41;;;;;;;39.38;13.27;;;;;;;;;;6222687;23;20004;-86
2022/01/31 15:06:07;;;;;;;33.40;14.93;;;;;;;;;;6222785;23;20008;-86
2022/01/31 15:08:34;;;;;;;45.03;19.05;;;;;;;;;;6222252;23;20128;-86
2022/01/31 15:11:02;;;;;;;38.63;16.55;;;;;;;;;;6196199;23;20013;-86
2022/01/31 15:13:28;;;;;;;32.60;12.82;;;;;;;;;;6222576;23;20087;-86
2022/01/31 15:15:55;;;;;;;27.63;10.23;;;;;;;;;;6196021;23;20001;-86
2022/01/31 15:18:22;;;;;;;25.65;10.55;;;;;;;;;;6222496;23;20017;-86
2022/01/31 15:20:48;;;;;;;21.42;7.70;;;;;;;;;;6222695;23;20001;-85
2022/01/31 15:23:14;;;;;;;23.15;8.52;;;;;;;;;;6222288;23;20043;-86
2022/01/31 15:25:42;;;;;;;29.85;10.55;;;;;;;;;;6222039;23;20360;-85
2022/01/31 15:28:08;;;;;;;25.20;9.57;;;;;;;;;;6195479;23;20015;-85
2022/01/31 15:30:34;;;;;;;24.38;11.05;;;;;;;;;;6222499;23;20000;-85
2022/01/31 15:33:00;;;;;;;38.50;12.68;;;;;;;;;;6222483;23;20016;-85